sensor_id;sensor_type;location;lat;lon;timestamp;P1;durP1;ratioP1;P2;durP2;ratioP2
16033;SDS011;8121;51.418;6.998;2023-07-13T00:03:46;4.93;;;1.50;;
16033;SDS011;8121;51.418;6.998;2023-07-13T00:08:49;4.10;;;1.43;;
16033;SDS011;8121;51.418;6.998;2023-07-13T00:13:51;4.00;;;1.43;;
16033;SDS011;8121;51.418;6.998;2023-07-13T00:18:53;4.77;;;1.73;;
16033;SDS011;8121;51.418;6.998;2023-07-13T00:23:55;9.47;;;1.37;;
16033;SDS011;8121;51.418;6.998;2023-07-13T00:28:57;4.20;;;1.10;;
16033;SDS011;8121;51.418;6.998;2023-07-13T00:33:59;7.63;;;1.10;;
16033;SDS011;8121;51.418;6.998;2023-07-13T00:39:02;5.13;;;1.10;;
16033;SDS011;8121;51.418;6.998;2023-07-13T00:44:04;1.57;;;1.20;;
16033;SDS011;8121;51.418;6.998;2023-07-13T00:49:06;8.53;;;1.63;;
16033;SDS011;8121;51.418;6.998;2023-07-13T00:54:11;7.47;;;1.43;;
16033;SDS011;8121;51.418;6.998;2023-07-13T00:59:15;5.20;;;1.47;;
16033;SDS011;8121;51.418;6.998;2023-07-13T01:04:19;3.27;;;1.60;;
16033;SDS011;8121;51.418;6.998;2023-07-13T01:09:21;2.13;;;1.20;;
16033;SDS011;8121;51.418;6.998;2023-07-13T01:14:23;4.67;;;1.40;;
16033;SDS011;8121;51.418;6.998;2023-07-13T01:19:27;12.47;;;1.77;;
16033;SDS011;8121;51.418;6.998;2023-07-13T01:24:37;3.97;;;1.23;;
16033;SDS011;8121;51.418;6.998;2023-07-13T01:29:43;2.80;;;1.20;;
16033;SDS011;8121;51.418;6.998;2023-07-13T01:34:47;3.17;;;1.10;;
16033;SDS011;8121;51.418;6.998;2023-07-13T01:39:51;3.93;;;1.07;;
16033;SDS011;8121;51.418;6.998;2023-07-13T01:44:52;2.63;;;1.23;;
16033;SDS011;8121;51.418;6.998;2023-07-13T01:49:54;14.10;;;1.60;;
16033;SDS011;8121;51.418;6.998;2023-07-13T01:54:57;7.03;;;1.43;;
16033;SDS011;8121;51.418;6.998;2023-07-13T01:59:58;3.00;;;1.40;;
16033;SDS011;8121;51.418;6.998;2023-07-13T02:05:00;5.40;;;1.87;;
16033;SDS011;8121;51.418;6.998;2023-07-13T02:10:03;3.83;;;1.50;;
16033;SDS011;8121;51.418;6.998;2023-07-13T02:15:06;2.03;;;1.30;;
16033;SDS011;8121;51.418;6.998;2023-07-13T02:20:08;12.60;;;1.50;;
16033;SDS011;8121;51.418;6.998;2023-07-13T02:25:11;8.03;;;1.43;;
16033;SDS011;8121;51.418;6.998;2023-07-13T02:30:13;8.13;;;1.30;;
16033;SDS011;8121;51.418;6.998;2023-07-13T02:35:15;9.43;;;1.97;;
16033;SDS011;8121;51.418;6.998;2023-07-13T02:40:18;5.03;;;1.60;;
16033;SDS011;8121;51.418;6.998;2023-07-13T02:45:20;4.23;;;1.63;;
16033;SDS011;8121;51.418;6.998;2023-07-13T02:50:21;3.50;;;1.50;;
16033;SDS011;8121;51.418;6.998;2023-07-13T02:55:24;1.83;;;1.20;;
16033;SDS011;8121;51.418;6.998;2023-07-13T03:00:26;4.07;;;1.40;;
16033;SDS011;8121;51.418;6.998;2023-07-13T03:05:27;5.23;;;1.23;;
16033;SDS011;8121;51.418;6.998;2023-07-13T03:10:30;4.00;;;1.57;;
16033;SDS011;8121;51.418;6.998;2023-07-13T03:15:32;3.90;;;1.33;;
16033;SDS011;8121;51.418;6.998;2023-07-13T03:20:34;5.93;;;1.70;;
16033;SDS011;8121;51.418;6.998;2023-07-13T03:25:37;10.17;;;1.27;;
16033;SDS011;8121;51.418;6.998;2023-07-13T03:30:39;6.93;;;1.73;;
16033;SDS011;8121;51.418;6.998;2023-07-13T03:35:40;6.97;;;1.33;;
16033;SDS011;8121;51.418;6.998;2023-07-13T03:40:43;1.60;;;1.30;;
16033;SDS011;8121;51.418;6.998;2023-07-13T03:45:45;4.53;;;1.50;;
16033;SDS011;8121;51.418;6.998;2023-07-13T03:50:46;11.43;;;1.57;;
16033;SDS011;8121;51.418;6.998;2023-07-13T03:55:50;8.10;;;1.60;;
16033;SDS011;8121;51.418;6.998;2023-07-13T04:00:52;7.13;;;1.70;;
16033;SDS011;8121;51.418;6.998;2023-07-13T04:05:53;4.63;;;1.40;;
16033;SDS011;8121;51.418;6.998;2023-07-13T04:11:01;2.50;;;1.40;;
16033;SDS011;8121;51.418;6.998;2023-07-13T04:16:03;1.50;;;1.40;;
16033;SDS011;8121;51.418;6.998;2023-07-13T04:21:05;2.20;;;1.20;;
16033;SDS011;8121;51.418;6.998;2023-07-13T04:26:08;13.27;;;1.60;;
16033;SDS011;8121;51.418;6.998;2023-07-13T04:31:09;8.13;;;1.70;;
16033;SDS011;8121;51.418;6.998;2023-07-13T04:36:11;3.33;;;1.33;;
16033;SDS011;8121;51.418;6.998;2023-07-13T04:41:15;9.33;;;1.77;;
16033;SDS011;8121;51.418;6.998;2023-07-13T04:46:17;11.80;;;2.27;;
16033;SDS011;8121;51.418;6.998;2023-07-13T04:51:19;7.07;;;1.97;;
16033;SDS011;8121;51.418;6.998;2023-07-13T04:56:22;5.50;;;1.53;;
16033;SDS011;8121;51.418;6.998;2023-07-13T05:01:23;4.57;;;1.73;;
16033;SDS011;8121;51.418;6.998;2023-07-13T05:06:25;7.10;;;1.50;;
16033;SDS011;8121;51.418;6.998;2023-07-13T05:11:28;16.00;;;2.10;;
16033;SDS011;8121;51.418;6.998;2023-07-13T05:16:29;6.30;;;2.23;;
16033;SDS011;8121;51.418;6.998;2023-07-13T05:21:31;7.73;;;1.80;;
16033;SDS011;8121;51.418;6.998;2023-07-13T05:26:34;5.00;;;1.73;;
16033;SDS011;8121;51.418;6.998;2023-07-13T05:31:36;10.63;;;2.23;;
16033;SDS011;8121;51.418;6.998;2023-07-13T05:36:37;9.00;;;2.07;;
16033;SDS011;8121;51.418;6.998;2023-07-13T05:41:40;11.93;;;2.03;;
16033;SDS011;8121;51.418;6.998;2023-07-13T05:46:42;8.03;;;2.30;;
16033;SDS011;8121;51.418;6.998;2023-07-13T05:51:43;8.17;;;2.10;;
16033;SDS011;8121;51.418;6.998;2023-07-13T05:56:46;6.63;;;2.10;;
16033;SDS011;8121;51.418;6.998;2023-07-13T06:01:48;4.37;;;2.00;;
16033;SDS011;8121;51.418;6.998;2023-07-13T06:06:52;5.40;;;1.57;;
16033;SDS011;8121;51.418;6.998;2023-07-13T06:11:55;6.53;;;1.90;;
16033;SDS011;8121;51.418;6.998;2023-07-13T06:16:57;7.27;;;2.53;;
16033;SDS011;8121;51.418;6.998;2023-07-13T06:21:58;4.47;;;1.77;;
16033;SDS011;8121;51.418;6.998;2023-07-13T06:27:02;6.97;;;2.40;;
16033;SDS011;8121;51.418;6.998;2023-07-13T06:32:04;9.77;;;2.47;;
16033;SDS011;8121;51.418;6.998;2023-07-13T06:37:06;12.13;;;2.60;;
16033;SDS011;8121;51.418;6.998;2023-07-13T06:42:09;6.93;;;2.00;;
16033;SDS011;8121;51.418;6.998;2023-07-13T06:47:11;4.90;;;1.90;;
16033;SDS011;8121;51.418;6.998;2023-07-13T06:52:12;8.00;;;2.57;;
16033;SDS011;8121;51.418;6.998;2023-07-13T06:57:15;5.50;;;2.30;;
16033;SDS011;8121;51.418;6.998;2023-07-13T07:02:17;9.50;;;2.30;;
16033;SDS011;8121;51.418;6.998;2023-07-13T07:07:18;9.13;;;2.40;;
16033;SDS011;8121;51.418;6.998;2023-07-13T07:12:21;8.43;;;2.13;;
16033;SDS011;8121;51.418;6.998;2023-07-13T07:17:23;10.73;;;2.03;;
16033;SDS011;8121;51.418;6.998;2023-07-13T07:22:26;11.10;;;2.37;;
16033;SDS011;8121;51.418;6.998;2023-07-13T07:27:29;8.63;;;2.17;;
16033;SDS011;8121;51.418;6.998;2023-07-13T07:32:30;4.80;;;2.00;;
16033;SDS011;8121;51.418;6.998;2023-07-13T07:37:32;5.53;;;2.00;;
16033;SDS011;8121;51.418;6.998;2023-07-13T07:42:35;7.60;;;2.20;;
16033;SDS011;8121;51.418;6.998;2023-07-13T07:47:36;7.27;;;2.30;;
16033;SDS011;8121;51.418;6.998;2023-07-13T07:52:38;4.70;;;1.87;;
16033;SDS011;8121;51.418;6.998;2023-07-13T07:57:41;4.07;;;1.60;;
16033;SDS011;8121;51.418;6.998;2023-07-13T08:02:42;5.33;;;2.20;;
16033;SDS011;8121;51.418;6.998;2023-07-13T08:07:44;6.07;;;2.07;;
16033;SDS011;8121;51.418;6.998;2023-07-13T08:12:47;5.37;;;2.20;;
16033;SDS011;8121;51.418;6.998;2023-07-13T08:17:49;3.83;;;1.47;;
16033;SDS011;8121;51.418;6.998;2023-07-13T08:22:50;9.90;;;2.17;;
16033;SDS011;8121;51.418;6.998;2023-07-13T08:27:53;14.60;;;2.87;;
16033;SDS011;8121;51.418;6.998;2023-07-13T08:32:55;6.63;;;3.33;;
16033;SDS011;8121;51.418;6.998;2023-07-13T08:37:56;17.73;;;6.43;;
16033;SDS011;8121;51.418;6.998;2023-07-13T08:42:59;7.37;;;2.83;;
16033;SDS011;8121;51.418;6.998;2023-07-13T08:48:02;5.17;;;2.57;;
16033;SDS011;8121;51.418;6.998;2023-07-13T08:53:05;10.67;;;2.77;;
16033;SDS011;8121;51.418;6.998;2023-07-13T08:58:10;10.10;;;1.70;;
16033;SDS011;8121;51.418;6.998;2023-07-13T09:03:16;7.77;;;1.97;;
16033;SDS011;8121;51.418;6.998;2023-07-13T09:08:26;7.83;;;3.03;;
16033;SDS011;8121;51.418;6.998;2023-07-13T09:13:37;4.80;;;3.20;;
16033;SDS011;8121;51.418;6.998;2023-07-13T09:18:43;4.37;;;1.70;;
16033;SDS011;8121;51.418;6.998;2023-07-13T09:23:47;6.70;;;2.27;;
16033;SDS011;8121;51.418;6.998;2023-07-13T09:28:51;5.10;;;1.50;;
16033;SDS011;8121;51.418;6.998;2023-07-13T09:33:54;3.63;;;1.53;;
16033;SDS011;8121;51.418;6.998;2023-07-13T09:38:58;4.90;;;1.90;;
16033;SDS011;8121;51.418;6.998;2023-07-13T09:44:09;7.50;;;1.67;;
16033;SDS011;8121;51.418;6.998;2023-07-13T09:49:12;2.80;;;1.47;;
16033;SDS011;8121;51.418;6.998;2023-07-13T09:54:20;12.83;;;2.67;;
16033;SDS011;8121;51.418;6.998;2023-07-13T09:59:27;6.07;;;1.80;;
16033;SDS011;8121;51.418;6.998;2023-07-13T10:04:31;4.83;;;1.97;;
16033;SDS011;8121;51.418;6.998;2023-07-13T10:09:34;3.03;;;1.80;;
16033;SDS011;8121;51.418;6.998;2023-07-13T10:14:37;5.30;;;1.80;;
16033;SDS011;8121;51.418;6.998;2023-07-13T10:19:39;2.87;;;2.03;;
16033;SDS011;8121;51.418;6.998;2023-07-13T10:24:43;4.77;;;2.07;;
16033;SDS011;8121;51.418;6.998;2023-07-13T10:29:47;5.53;;;2.97;;
16033;SDS011;8121;51.418;6.998;2023-07-13T10:34:51;4.17;;;2.57;;
16033;SDS011;8121;51.418;6.998;2023-07-13T10:39:55;4.60;;;1.60;;
16033;SDS011;8121;51.418;6.998;2023-07-13T10:44:58;4.53;;;1.93;;
16033;SDS011;8121;51.418;6.998;2023-07-13T10:50:00;14.53;;;2.30;;
16033;SDS011;8121;51.418;6.998;2023-07-13T10:55:02;10.87;;;1.77;;
16033;SDS011;8121;51.418;6.998;2023-07-13T11:05:26;6.40;;;1.93;;
16033;SDS011;8121;51.418;6.998;2023-07-13T11:10:49;3.27;;;1.60;;
16033;SDS011;8121;51.418;6.998;2023-07-13T11:15:53;2.00;;;1.50;;
16033;SDS011;8121;51.418;6.998;2023-07-13T11:31:44;2.77;;;1.50;;
16033;SDS011;8121;51.418;6.998;2023-07-13T11:36:52;3.33;;;1.30;;
16033;SDS011;8121;51.418;6.998;2023-07-13T11:41:54;6.13;;;1.43;;
16033;SDS011;8121;51.418;6.998;2023-07-13T11:47:00;4.87;;;1.90;;
16033;SDS011;8121;51.418;6.998;2023-07-13T11:52:04;4.00;;;1.60;;
16033;SDS011;8121;51.418;6.998;2023-07-13T11:57:07;3.40;;;2.13;;
16033;SDS011;8121;51.418;6.998;2023-07-13T12:02:21;4.70;;;1.50;;
16033;SDS011;8121;51.418;6.998;2023-07-13T12:07:29;6.80;;;1.80;;
16033;SDS011;8121;51.418;6.998;2023-07-13T12:12:32;2.60;;;1.00;;
16033;SDS011;8121;51.418;6.998;2023-07-13T12:17:35;2.10;;;1.03;;
16033;SDS011;8121;51.418;6.998;2023-07-13T12:22:36;4.50;;;1.20;;
16033;SDS011;8121;51.418;6.998;2023-07-13T12:27:38;6.77;;;1.40;;
16033;SDS011;8121;51.418;6.998;2023-07-13T12:32:41;5.10;;;1.77;;
16033;SDS011;8121;51.418;6.998;2023-07-13T12:37:42;3.40;;;1.83;;
16033;SDS011;8121;51.418;6.998;2023-07-13T12:42:45;3.90;;;1.90;;
16033;SDS011;8121;51.418;6.998;2023-07-13T12:47:52;3.77;;;1.50;;
16033;SDS011;8121;51.418;6.998;2023-07-13T12:52:56;2.23;;;1.53;;
16033;SDS011;8121;51.418;6.998;2023-07-13T12:58:03;3.67;;;2.07;;
16033;SDS011;8121;51.418;6.998;2023-07-13T13:03:21;4.73;;;1.20;;
16033;SDS011;8121;51.418;6.998;2023-07-13T13:08:24;1.20;;;1.00;;
16033;SDS011;8121;51.418;6.998;2023-07-13T13:13:26;3.53;;;1.20;;
16033;SDS011;8121;51.418;6.998;2023-07-13T13:18:29;2.90;;;1.37;;
16033;SDS011;8121;51.418;6.998;2023-07-13T13:23:30;2.17;;;0.80;;
16033;SDS011;8121;51.418;6.998;2023-07-13T13:28:32;2.23;;;1.03;;
16033;SDS011;8121;51.418;6.998;2023-07-13T13:33:35;2.50;;;1.30;;
16033;SDS011;8121;51.418;6.998;2023-07-13T13:38:36;4.30;;;1.27;;
16033;SDS011;8121;51.418;6.998;2023-07-13T13:43:38;1.80;;;1.37;;
16033;SDS011;8121;51.418;6.998;2023-07-13T13:48:43;2.17;;;1.53;;
16033;SDS011;8121;51.418;6.998;2023-07-13T13:53:45;1.77;;;1.17;;
16033;SDS011;8121;51.418;6.998;2023-07-13T13:58:47;2.83;;;1.63;;
16033;SDS011;8121;51.418;6.998;2023-07-13T14:03:50;1.60;;;1.33;;
16033;SDS011;8121;51.418;6.998;2023-07-13T14:08:52;3.10;;;1.63;;
16033;SDS011;8121;51.418;6.998;2023-07-13T14:13:56;1.60;;;1.47;;
16033;SDS011;8121;51.418;6.998;2023-07-13T14:19:00;20.57;;;4.53;;
16033;SDS011;8121;51.418;6.998;2023-07-13T14:41:59;2.58;;;1.77;;
16033;SDS011;8121;51.418;6.998;2023-07-13T14:47:02;4.60;;;2.70;;
16033;SDS011;8121;51.418;6.998;2023-07-13T14:52:09;6.73;;;2.30;;
16033;SDS011;8121;51.418;6.998;2023-07-13T14:57:13;2.83;;;2.07;;
16033;SDS011;8121;51.418;6.998;2023-07-13T15:03:15;3.50;;;3.20;;
16033;SDS011;8121;51.418;6.998;2023-07-13T15:08:20;4.90;;;3.80;;
16033;SDS011;8121;51.418;6.998;2023-07-13T15:13:22;3.30;;;2.50;;
16033;SDS011;8121;51.418;6.998;2023-07-13T16:33:46;1.47;;;1.00;;
16033;SDS011;8121;51.418;6.998;2023-07-13T16:38:49;1.00;;;0.70;;
16033;SDS011;8121;51.418;6.998;2023-07-13T22:06:39;4.63;;;3.03;;
16033;SDS011;8121;51.418;6.998;2023-07-13T22:11:40;5.37;;;3.63;;
16033;SDS011;8121;51.418;6.998;2023-07-13T22:16:41;2.67;;;2.37;;
16033;SDS011;8121;51.418;6.998;2023-07-13T22:21:44;12.47;;;3.50;;
16033;SDS011;8121;51.418;6.998;2023-07-13T22:26:46;4.70;;;3.17;;
16033;SDS011;8121;51.418;6.998;2023-07-13T22:31:48;4.03;;;2.67;;
16033;SDS011;8121;51.418;6.998;2023-07-13T22:36:51;9.73;;;3.80;;
16033;SDS011;8121;51.418;6.998;2023-07-13T22:41:53;10.00;;;4.10;;
16033;SDS011;8121;51.418;6.998;2023-07-13T22:46:54;10.47;;;3.33;;
16033;SDS011;8121;51.418;6.998;2023-07-13T22:51:59;5.50;;;3.13;;
16033;SDS011;8121;51.418;6.998;2023-07-13T22:57:02;10.73;;;3.20;;
16033;SDS011;8121;51.418;6.998;2023-07-13T23:02:04;3.40;;;3.10;;
16033;SDS011;8121;51.418;6.998;2023-07-13T23:07:10;4.17;;;3.03;;
16033;SDS011;8121;51.418;6.998;2023-07-13T23:12:12;5.90;;;3.47;;
16033;SDS011;8121;51.418;6.998;2023-07-13T23:17:13;4.03;;;3.50;;
16033;SDS011;8121;51.418;6.998;2023-07-13T23:22:18;2.60;;;2.40;;
16033;SDS011;8121;51.418;6.998;2023-07-13T23:27:24;6.57;;;3.37;;
16033;SDS011;8121;51.418;6.998;2023-07-13T23:32:26;7.80;;;3.60;;
16033;SDS011;8121;51.418;6.998;2023-07-13T23:37:29;9.40;;;2.93;;
16033;SDS011;8121;51.418;6.998;2023-07-13T23:42:30;3.90;;;2.90;;
16033;SDS011;8121;51.418;6.998;2023-07-13T23:47:32;6.40;;;2.47;;
16033;SDS011;8121;51.418;6.998;2023-07-13T23:52:35;4.27;;;3.10;;
16033;SDS011;8121;51.418;6.998;2023-07-13T23:57:36;3.20;;;3.00;;
